sensor_id;sensor_type;location;lat;lon;timestamp;P1;durP1;ratioP1;P2;durP2;ratioP2
42066;SDS011;27734;47.028;28.820;2023-07-13T00:00:50;13.00;;;5.97;;
42066;SDS011;27734;47.028;28.820;2023-07-13T00:03:39;16.30;;;5.70;;
42066;SDS011;27734;47.028;28.820;2023-07-13T00:06:08;10.37;;;5.50;;
42066;SDS011;27734;47.028;28.820;2023-07-13T00:08:37;12.23;;;5.63;;
42066;SDS011;27734;47.028;28.820;2023-07-13T00:11:05;11.67;;;5.33;;
42066;SDS011;27734;47.028;28.820;2023-07-13T00:13:34;9.93;;;5.13;;
42066;SDS011;27734;47.028;28.820;2023-07-13T00:16:05;15.57;;;5.70;;
42066;SDS011;27734;47.028;28.820;2023-07-13T00:18:34;9.50;;;4.93;;
42066;SDS011;27734;47.028;28.820;2023-07-13T00:21:02;11.27;;;5.33;;
42066;SDS011;27734;47.028;28.820;2023-07-13T00:23:32;13.77;;;5.77;;
42066;SDS011;27734;47.028;28.820;2023-07-13T00:26:01;16.97;;;5.30;;
42066;SDS011;27734;47.028;28.820;2023-07-13T00:28:30;12.87;;;5.30;;
42066;SDS011;27734;47.028;28.820;2023-07-13T00:30:59;10.43;;;4.80;;
42066;SDS011;27734;47.028;28.820;2023-07-13T00:33:28;11.43;;;5.60;;
42066;SDS011;27734;47.028;28.820;2023-07-13T00:35:57;10.03;;;5.07;;
42066;SDS011;27734;47.028;28.820;2023-07-13T00:38:26;10.33;;;5.33;;
42066;SDS011;27734;47.028;28.820;2023-07-13T00:40:55;11.13;;;4.97;;
42066;SDS011;27734;47.028;28.820;2023-07-13T00:43:25;13.10;;;5.85;;
42066;SDS011;27734;47.028;28.820;2023-07-13T00:46:12;13.87;;;5.70;;
42066;SDS011;27734;47.028;28.820;2023-07-13T00:48:44;11.30;;;5.27;;
42066;SDS011;27734;47.028;28.820;2023-07-13T00:51:16;12.40;;;5.60;;
42066;SDS011;27734;47.028;28.820;2023-07-13T00:53:50;12.63;;;5.57;;
42066;SDS011;27734;47.028;28.820;2023-07-13T00:56:20;11.93;;;5.53;;
42066;SDS011;27734;47.028;28.820;2023-07-13T00:58:49;9.37;;;5.53;;
42066;SDS011;27734;47.028;28.820;2023-07-13T01:01:18;10.53;;;5.10;;
42066;SDS011;27734;47.028;28.820;2023-07-13T01:03:47;13.33;;;5.57;;
42066;SDS011;27734;47.028;28.820;2023-07-13T01:06:15;11.20;;;5.93;;
42066;SDS011;27734;47.028;28.820;2023-07-13T01:08:44;10.40;;;5.10;;
42066;SDS011;27734;47.028;28.820;2023-07-13T01:11:13;10.60;;;5.17;;
42066;SDS011;27734;47.028;28.820;2023-07-13T01:13:47;10.33;;;5.60;;
42066;SDS011;27734;47.028;28.820;2023-07-13T01:16:19;11.83;;;5.37;;
42066;SDS011;27734;47.028;28.820;2023-07-13T01:18:52;9.90;;;5.50;;
42066;SDS011;27734;47.028;28.820;2023-07-13T01:21:25;14.23;;;5.40;;
42066;SDS011;27734;47.028;28.820;2023-07-13T01:23:54;10.53;;;5.63;;
42066;SDS011;27734;47.028;28.820;2023-07-13T01:26:23;11.43;;;5.23;;
42066;SDS011;27734;47.028;28.820;2023-07-13T01:28:51;9.97;;;5.23;;
42066;SDS011;27734;47.028;28.820;2023-07-13T01:31:20;10.20;;;5.57;;
42066;SDS011;27734;47.028;28.820;2023-07-13T01:33:49;12.83;;;5.50;;
42066;SDS011;27734;47.028;28.820;2023-07-13T01:36:17;12.03;;;5.77;;
42066;SDS011;27734;47.028;28.820;2023-07-13T01:38:47;11.17;;;5.37;;
42066;SDS011;27734;47.028;28.820;2023-07-13T01:41:16;11.87;;;5.90;;
42066;SDS011;27734;47.028;28.820;2023-07-13T01:43:46;11.13;;;6.30;;
42066;SDS011;27734;47.028;28.820;2023-07-13T01:46:15;15.17;;;5.30;;
42066;SDS011;27734;47.028;28.820;2023-07-13T01:48:43;12.20;;;5.50;;
42066;SDS011;27734;47.028;28.820;2023-07-13T01:51:12;9.23;;;5.47;;
42066;SDS011;27734;47.028;28.820;2023-07-13T01:53:40;11.83;;;5.60;;
42066;SDS011;27734;47.028;28.820;2023-07-13T01:56:09;10.63;;;5.77;;
42066;SDS011;27734;47.028;28.820;2023-07-13T01:58:38;10.40;;;5.30;;
42066;SDS011;27734;47.028;28.820;2023-07-13T02:01:06;12.13;;;5.63;;
42066;SDS011;27734;47.028;28.820;2023-07-13T02:03:35;11.17;;;5.63;;
42066;SDS011;27734;47.028;28.820;2023-07-13T02:06:03;9.20;;;5.53;;
42066;SDS011;27734;47.028;28.820;2023-07-13T02:08:32;10.97;;;5.70;;
42066;SDS011;27734;47.028;28.820;2023-07-13T02:11:02;11.90;;;5.67;;
42066;SDS011;27734;47.028;28.820;2023-07-13T02:13:30;11.00;;;5.33;;
42066;SDS011;27734;47.028;28.820;2023-07-13T02:15:59;10.07;;;5.27;;
42066;SDS011;27734;47.028;28.820;2023-07-13T02:18:28;13.63;;;5.30;;
42066;SDS011;27734;47.028;28.820;2023-07-13T02:20:56;9.87;;;5.10;;
42066;SDS011;27734;47.028;28.820;2023-07-13T02:23:25;11.07;;;5.57;;
42066;SDS011;27734;47.028;28.820;2023-07-13T02:25:55;11.50;;;5.60;;
42066;SDS011;27734;47.028;28.820;2023-07-13T02:28:23;8.45;;;5.25;;
42066;SDS011;27734;47.028;28.820;2023-07-13T02:30:52;13.00;;;5.13;;
42066;SDS011;27734;47.028;28.820;2023-07-13T02:33:21;12.37;;;5.73;;
42066;SDS011;27734;47.028;28.820;2023-07-13T02:35:50;15.43;;;5.87;;
42066;SDS011;27734;47.028;28.820;2023-07-13T02:38:19;9.95;;;5.20;;
42066;SDS011;27734;47.028;28.820;2023-07-13T02:40:47;11.07;;;6.17;;
42066;SDS011;27734;47.028;28.820;2023-07-13T02:43:16;11.40;;;5.70;;
42066;SDS011;27734;47.028;28.820;2023-07-13T02:45:44;12.20;;;5.80;;
42066;SDS011;27734;47.028;28.820;2023-07-13T02:48:13;8.63;;;5.47;;
42066;SDS011;27734;47.028;28.820;2023-07-13T02:50:42;11.53;;;5.63;;
42066;SDS011;27734;47.028;28.820;2023-07-13T02:53:12;11.20;;;5.80;;
42066;SDS011;27734;47.028;28.820;2023-07-13T02:55:41;8.87;;;5.30;;
42066;SDS011;27734;47.028;28.820;2023-07-13T02:58:31;10.17;;;5.50;;
42066;SDS011;27734;47.028;28.820;2023-07-13T03:01:06;13.60;;;6.03;;
42066;SDS011;27734;47.028;28.820;2023-07-13T03:03:35;12.45;;;5.75;;
42066;SDS011;27734;47.028;28.820;2023-07-13T03:06:05;10.27;;;5.70;;
42066;SDS011;27734;47.028;28.820;2023-07-13T03:08:39;14.80;;;6.27;;
42066;SDS011;27734;47.028;28.820;2023-07-13T03:11:08;13.13;;;6.20;;
42066;SDS011;27734;47.028;28.820;2023-07-13T03:13:41;11.50;;;5.80;;
42066;SDS011;27734;47.028;28.820;2023-07-13T03:16:11;12.80;;;5.80;;
42066;SDS011;27734;47.028;28.820;2023-07-13T03:18:42;11.40;;;6.00;;
42066;SDS011;27734;47.028;28.820;2023-07-13T03:21:11;13.63;;;6.07;;
42066;SDS011;27734;47.028;28.820;2023-07-13T03:23:40;12.40;;;6.13;;
42066;SDS011;27734;47.028;28.820;2023-07-13T03:26:09;11.40;;;5.87;;
42066;SDS011;27734;47.028;28.820;2023-07-13T03:28:41;12.07;;;5.90;;
42066;SDS011;27734;47.028;28.820;2023-07-13T03:31:13;11.80;;;5.90;;
42066;SDS011;27734;47.028;28.820;2023-07-13T03:33:43;13.67;;;6.03;;
42066;SDS011;27734;47.028;28.820;2023-07-13T03:36:13;12.90;;;6.17;;
42066;SDS011;27734;47.028;28.820;2023-07-13T03:38:46;13.20;;;6.00;;
42066;SDS011;27734;47.028;28.820;2023-07-13T03:41:15;12.13;;;5.87;;
42066;SDS011;27734;47.028;28.820;2023-07-13T03:43:48;11.17;;;6.10;;
42066;SDS011;27734;47.028;28.820;2023-07-13T03:46:18;14.07;;;6.50;;
42066;SDS011;27734;47.028;28.820;2023-07-13T03:48:47;10.33;;;5.57;;
42066;SDS011;27734;47.028;28.820;2023-07-13T03:51:17;14.20;;;6.03;;
42066;SDS011;27734;47.028;28.820;2023-07-13T03:53:46;9.65;;;5.80;;
42066;SDS011;27734;47.028;28.820;2023-07-13T03:56:16;11.50;;;5.53;;
42066;SDS011;27734;47.028;28.820;2023-07-13T03:58:46;13.30;;;5.90;;
42066;SDS011;27734;47.028;28.820;2023-07-13T04:01:19;14.45;;;6.47;;
42066;SDS011;27734;47.028;28.820;2023-07-13T04:03:49;11.37;;;5.87;;
42066;SDS011;27734;47.028;28.820;2023-07-13T04:06:19;11.80;;;6.20;;
42066;SDS011;27734;47.028;28.820;2023-07-13T04:08:49;15.13;;;6.40;;
42066;SDS011;27734;47.028;28.820;2023-07-13T04:11:20;10.80;;;6.33;;
42066;SDS011;27734;47.028;28.820;2023-07-13T04:13:50;14.60;;;7.03;;
42066;SDS011;27734;47.028;28.820;2023-07-13T04:16:19;13.50;;;6.47;;
42066;SDS011;27734;47.028;28.820;2023-07-13T04:18:48;13.07;;;6.50;;
42066;SDS011;27734;47.028;28.820;2023-07-13T04:23:49;10.47;;;5.97;;
42066;SDS011;27734;47.028;28.820;2023-07-13T04:26:17;11.30;;;5.97;;
42066;SDS011;27734;47.028;28.820;2023-07-13T04:28:47;14.77;;;6.70;;
42066;SDS011;27734;47.028;28.820;2023-07-13T04:31:16;10.63;;;6.40;;
42066;SDS011;27734;47.028;28.820;2023-07-13T04:33:45;12.50;;;6.50;;
42066;SDS011;27734;47.028;28.820;2023-07-13T04:36:14;12.30;;;6.77;;
42066;SDS011;27734;47.028;28.820;2023-07-13T04:38:42;11.53;;;6.50;;
42066;SDS011;27734;47.028;28.820;2023-07-13T04:41:11;11.93;;;6.87;;
42066;SDS011;27734;47.028;28.820;2023-07-13T04:43:40;12.70;;;7.00;;
42066;SDS011;27734;47.028;28.820;2023-07-13T04:46:09;13.43;;;6.67;;
42066;SDS011;27734;47.028;28.820;2023-07-13T04:48:42;12.90;;;6.87;;
42066;SDS011;27734;47.028;28.820;2023-07-13T04:51:11;15.10;;;6.97;;
42066;SDS011;27734;47.028;28.820;2023-07-13T04:53:39;13.47;;;7.00;;
42066;SDS011;27734;47.028;28.820;2023-07-13T04:56:08;13.43;;;7.30;;
42066;SDS011;27734;47.028;28.820;2023-07-13T04:58:37;14.53;;;6.93;;
42066;SDS011;27734;47.028;28.820;2023-07-13T05:01:07;13.03;;;6.90;;
42066;SDS011;27734;47.028;28.820;2023-07-13T05:03:39;19.17;;;7.90;;
42066;SDS011;27734;47.028;28.820;2023-07-13T05:06:08;13.37;;;7.63;;
42066;SDS011;27734;47.028;28.820;2023-07-13T05:08:37;12.83;;;7.13;;
42066;SDS011;27734;47.028;28.820;2023-07-13T05:11:06;15.37;;;7.40;;
42066;SDS011;27734;47.028;28.820;2023-07-13T05:13:34;15.20;;;7.50;;
42066;SDS011;27734;47.028;28.820;2023-07-13T05:16:03;18.07;;;7.40;;
42066;SDS011;27734;47.028;28.820;2023-07-13T05:18:34;14.47;;;7.70;;
42066;SDS011;27734;47.028;28.820;2023-07-13T05:21:04;14.20;;;7.80;;
42066;SDS011;27734;47.028;28.820;2023-07-13T05:23:34;14.37;;;7.43;;
42066;SDS011;27734;47.028;28.820;2023-07-13T05:26:03;17.53;;;7.87;;
42066;SDS011;27734;47.028;28.820;2023-07-13T05:28:32;16.40;;;7.80;;
42066;SDS011;27734;47.028;28.820;2023-07-13T05:31:00;15.60;;;8.20;;
42066;SDS011;27734;47.028;28.820;2023-07-13T05:33:30;15.77;;;8.20;;
42066;SDS011;27734;47.028;28.820;2023-07-13T05:35:59;15.87;;;8.13;;
42066;SDS011;27734;47.028;28.820;2023-07-13T05:38:28;18.60;;;8.30;;
42066;SDS011;27734;47.028;28.820;2023-07-13T05:40:57;16.00;;;8.33;;
42066;SDS011;27734;47.028;28.820;2023-07-13T05:43:25;18.63;;;8.50;;
42066;SDS011;27734;47.028;28.820;2023-07-13T05:45:56;15.23;;;7.90;;
42066;SDS011;27734;47.028;28.820;2023-07-13T05:48:25;17.13;;;8.00;;
42066;SDS011;27734;47.028;28.820;2023-07-13T05:50:59;17.87;;;7.87;;
42066;SDS011;27734;47.028;28.820;2023-07-13T05:53:31;16.13;;;8.63;;
42066;SDS011;27734;47.028;28.820;2023-07-13T05:56:02;18.90;;;8.50;;
42066;SDS011;27734;47.028;28.820;2023-07-13T05:58:38;14.87;;;7.67;;
42066;SDS011;27734;47.028;28.820;2023-07-13T06:01:09;13.13;;;7.27;;
42066;SDS011;27734;47.028;28.820;2023-07-13T06:03:44;16.87;;;8.13;;
42066;SDS011;27734;47.028;28.820;2023-07-13T06:06:23;14.17;;;7.27;;
42066;SDS011;27734;47.028;28.820;2023-07-13T06:08:53;15.17;;;7.40;;
42066;SDS011;27734;47.028;28.820;2023-07-13T06:11:26;12.05;;;6.55;;
42066;SDS011;27734;47.028;28.820;2023-07-13T06:13:57;15.77;;;7.73;;
42066;SDS011;27734;47.028;28.820;2023-07-13T06:16:52;15.10;;;7.67;;
42066;SDS011;27734;47.028;28.820;2023-07-13T06:19:27;15.10;;;7.80;;
42066;SDS011;27734;47.028;28.820;2023-07-13T06:21:56;19.07;;;11.90;;
42066;SDS011;27734;47.028;28.820;2023-07-13T06:24:27;14.00;;;7.77;;
42066;SDS011;27734;47.028;28.820;2023-07-13T06:26:57;15.90;;;7.70;;
42066;SDS011;27734;47.028;28.820;2023-07-13T06:29:31;13.10;;;7.47;;
42066;SDS011;27734;47.028;28.820;2023-07-13T06:32:05;17.53;;;7.70;;
42066;SDS011;27734;47.028;28.820;2023-07-13T06:34:36;13.20;;;7.65;;
42066;SDS011;27734;47.028;28.820;2023-07-13T06:37:06;16.37;;;8.33;;
42066;SDS011;27734;47.028;28.820;2023-07-13T06:39:34;18.65;;;7.35;;
42066;SDS011;27734;47.028;28.820;2023-07-13T06:42:07;17.00;;;7.93;;
42066;SDS011;27734;47.028;28.820;2023-07-13T06:44:36;14.17;;;7.70;;
42066;SDS011;27734;47.028;28.820;2023-07-13T06:47:08;13.87;;;7.37;;
42066;SDS011;27734;47.028;28.820;2023-07-13T06:49:44;14.43;;;7.97;;
42066;SDS011;27734;47.028;28.820;2023-07-13T06:52:12;14.47;;;7.20;;
42066;SDS011;27734;47.028;28.820;2023-07-13T06:54:41;14.27;;;7.37;;
42066;SDS011;27734;47.028;28.820;2023-07-13T06:57:10;11.43;;;7.03;;
42066;SDS011;27734;47.028;28.820;2023-07-13T06:59:43;12.95;;;7.35;;
42066;SDS011;27734;47.028;28.820;2023-07-13T07:02:13;15.37;;;7.70;;
42066;SDS011;27734;47.028;28.820;2023-07-13T07:04:48;14.58;;;7.22;;
42066;SDS011;27734;47.028;28.820;2023-07-13T07:07:18;13.50;;;7.05;;
42066;SDS011;27734;47.028;28.820;2023-07-13T07:09:57;14.57;;;7.47;;
42066;SDS011;27734;47.028;28.820;2023-07-13T07:12:38;13.13;;;7.53;;
42066;SDS011;27734;47.028;28.820;2023-07-13T07:15:16;13.47;;;7.87;;
42066;SDS011;27734;47.028;28.820;2023-07-13T07:17:47;15.23;;;7.93;;
42066;SDS011;27734;47.028;28.820;2023-07-13T07:20:26;14.23;;;7.90;;
42066;SDS011;27734;47.028;28.820;2023-07-13T07:22:57;14.20;;;8.27;;
42066;SDS011;27734;47.028;28.820;2023-07-13T07:25:29;14.27;;;7.97;;
42066;SDS011;27734;47.028;28.820;2023-07-13T07:28:04;13.27;;;7.67;;
42066;SDS011;27734;47.028;28.820;2023-07-13T07:30:33;12.70;;;7.93;;
42066;SDS011;27734;47.028;28.820;2023-07-13T07:33:04;15.03;;;7.60;;
42066;SDS011;27734;47.028;28.820;2023-07-13T07:35:33;13.13;;;7.47;;
42066;SDS011;27734;47.028;28.820;2023-07-13T07:38:03;14.07;;;7.27;;
42066;SDS011;27734;47.028;28.820;2023-07-13T07:40:36;13.23;;;7.60;;
42066;SDS011;27734;47.028;28.820;2023-07-13T07:43:19;11.63;;;7.33;;
42066;SDS011;27734;47.028;28.820;2023-07-13T07:45:51;14.47;;;7.70;;
42066;SDS011;27734;47.028;28.820;2023-07-13T07:48:23;13.63;;;7.77;;
42066;SDS011;27734;47.028;28.820;2023-07-13T07:50:55;14.23;;;7.83;;
42066;SDS011;27734;47.028;28.820;2023-07-13T07:53:25;11.03;;;7.10;;
42066;SDS011;27734;47.028;28.820;2023-07-13T07:55:56;13.20;;;7.53;;
42066;SDS011;27734;47.028;28.820;2023-07-13T07:58:34;19.53;;;8.27;;
42066;SDS011;27734;47.028;28.820;2023-07-13T08:01:04;15.63;;;7.73;;
42066;SDS011;27734;47.028;28.820;2023-07-13T08:03:36;18.73;;;7.60;;
42066;SDS011;27734;47.028;28.820;2023-07-13T08:06:05;14.00;;;7.43;;
42066;SDS011;27734;47.028;28.820;2023-07-13T08:08:35;15.67;;;8.30;;
42066;SDS011;27734;47.028;28.820;2023-07-13T08:11:04;17.67;;;8.07;;
42066;SDS011;27734;47.028;28.820;2023-07-13T08:13:37;13.83;;;7.73;;
42066;SDS011;27734;47.028;28.820;2023-07-13T08:16:07;13.53;;;7.73;;
42066;SDS011;27734;47.028;28.820;2023-07-13T08:18:39;12.03;;;7.50;;
42066;SDS011;27734;47.028;28.820;2023-07-13T08:21:11;12.63;;;6.83;;
42066;SDS011;27734;47.028;28.820;2023-07-13T08:23:42;14.00;;;7.13;;
42066;SDS011;27734;47.028;28.820;2023-07-13T08:26:11;15.53;;;7.77;;
42066;SDS011;27734;47.028;28.820;2023-07-13T08:28:44;14.58;;;8.20;;
42066;SDS011;27734;47.028;28.820;2023-07-13T08:31:12;18.33;;;7.67;;
42066;SDS011;27734;47.028;28.820;2023-07-13T08:33:42;14.43;;;7.00;;
42066;SDS011;27734;47.028;28.820;2023-07-13T08:36:12;12.83;;;7.43;;
42066;SDS011;27734;47.028;28.820;2023-07-13T08:38:43;11.73;;;7.13;;
42066;SDS011;27734;47.028;28.820;2023-07-13T08:41:14;11.40;;;6.80;;
42066;SDS011;27734;47.028;28.820;2023-07-13T08:43:45;11.10;;;6.43;;
42066;SDS011;27734;47.028;28.820;2023-07-13T08:46:18;12.00;;;6.97;;
42066;SDS011;27734;47.028;28.820;2023-07-13T08:48:52;13.97;;;7.17;;
42066;SDS011;27734;47.028;28.820;2023-07-13T08:51:38;13.67;;;7.00;;
42066;SDS011;27734;47.028;28.820;2023-07-13T08:54:22;13.10;;;7.13;;
42066;SDS011;27734;47.028;28.820;2023-07-13T08:56:58;11.20;;;6.57;;
42066;SDS011;27734;47.028;28.820;2023-07-13T08:59:30;12.90;;;6.70;;
42066;SDS011;27734;47.028;28.820;2023-07-13T09:02:08;9.67;;;6.50;;
42066;SDS011;27734;47.028;28.820;2023-07-13T09:05:04;13.47;;;6.53;;
42066;SDS011;27734;47.028;28.820;2023-07-13T09:07:44;13.03;;;6.60;;
42066;SDS011;27734;47.028;28.820;2023-07-13T09:10:27;12.67;;;6.43;;
42066;SDS011;27734;47.028;28.820;2023-07-13T09:13:02;12.10;;;6.20;;
42066;SDS011;27734;47.028;28.820;2023-07-13T09:15:40;13.83;;;6.40;;
42066;SDS011;27734;47.028;28.820;2023-07-13T09:18:13;10.63;;;5.83;;
42066;SDS011;27734;47.028;28.820;2023-07-13T09:20:49;10.77;;;6.10;;
42066;SDS011;27734;47.028;28.820;2023-07-13T09:23:22;10.40;;;6.10;;
42066;SDS011;27734;47.028;28.820;2023-07-13T09:26:01;9.17;;;5.90;;
42066;SDS011;27734;47.028;28.820;2023-07-13T09:28:37;12.20;;;6.10;;
42066;SDS011;27734;47.028;28.820;2023-07-13T09:31:10;11.00;;;6.10;;
42066;SDS011;27734;47.028;28.820;2023-07-13T09:33:43;11.83;;;6.00;;
42066;SDS011;27734;47.028;28.820;2023-07-13T09:36:18;12.47;;;6.07;;
42066;SDS011;27734;47.028;28.820;2023-07-13T09:38:53;10.97;;;6.17;;
42066;SDS011;27734;47.028;28.820;2023-07-13T09:41:33;14.40;;;6.80;;
42066;SDS011;27734;47.028;28.820;2023-07-13T09:44:09;9.30;;;5.80;;
42066;SDS011;27734;47.028;28.820;2023-07-13T09:46:51;12.50;;;6.33;;
42066;SDS011;27734;47.028;28.820;2023-07-13T09:49:24;9.80;;;6.20;;
42066;SDS011;27734;47.028;28.820;2023-07-13T09:52:00;9.70;;;5.90;;
42066;SDS011;27734;47.028;28.820;2023-07-13T09:57:22;11.83;;;6.33;;
42066;SDS011;27734;47.028;28.820;2023-07-13T09:59:52;9.70;;;6.20;;
42066;SDS011;27734;47.028;28.820;2023-07-13T10:02:27;11.97;;;6.40;;
42066;SDS011;27734;47.028;28.820;2023-07-13T10:05:02;9.63;;;6.10;;
42066;SDS011;27734;47.028;28.820;2023-07-13T10:07:38;13.07;;;6.57;;
42066;SDS011;27734;47.028;28.820;2023-07-13T10:10:14;11.40;;;6.10;;
42066;SDS011;27734;47.028;28.820;2023-07-13T10:12:45;9.53;;;6.03;;
42066;SDS011;27734;47.028;28.820;2023-07-13T10:15:15;11.70;;;6.27;;
42066;SDS011;27734;47.028;28.820;2023-07-13T10:17:46;9.13;;;6.00;;
42066;SDS011;27734;47.028;28.820;2023-07-13T10:20:17;13.90;;;6.27;;
42066;SDS011;27734;47.028;28.820;2023-07-13T10:22:51;9.27;;;6.10;;
42066;SDS011;27734;47.028;28.820;2023-07-13T10:25:29;11.03;;;6.13;;
42066;SDS011;27734;47.028;28.820;2023-07-13T10:28:06;12.73;;;5.97;;
42066;SDS011;27734;47.028;28.820;2023-07-13T10:30:52;10.90;;;6.40;;
42066;SDS011;27734;47.028;28.820;2023-07-13T10:33:23;11.73;;;6.50;;
42066;SDS011;27734;47.028;28.820;2023-07-13T10:35:54;13.30;;;5.80;;
42066;SDS011;27734;47.028;28.820;2023-07-13T10:41:06;12.40;;;6.57;;
42066;SDS011;27734;47.028;28.820;2023-07-13T10:43:41;9.63;;;6.03;;
42066;SDS011;27734;47.028;28.820;2023-07-13T10:46:12;11.10;;;5.93;;
42066;SDS011;27734;47.028;28.820;2023-07-13T10:48:44;10.80;;;6.22;;
42066;SDS011;27734;47.028;28.820;2023-07-13T10:54:17;13.07;;;6.20;;
42066;SDS011;27734;47.028;28.820;2023-07-13T10:56:53;11.10;;;6.37;;
42066;SDS011;27734;47.028;28.820;2023-07-13T10:59:43;9.77;;;6.00;;
42066;SDS011;27734;47.028;28.820;2023-07-13T11:02:17;12.03;;;5.90;;
42066;SDS011;27734;47.028;28.820;2023-07-13T11:04:55;11.63;;;6.13;;
42066;SDS011;27734;47.028;28.820;2023-07-13T11:07:25;9.87;;;6.10;;
42066;SDS011;27734;47.028;28.820;2023-07-13T11:09:56;10.47;;;6.40;;
42066;SDS011;27734;47.028;28.820;2023-07-13T11:12:27;13.97;;;6.87;;
42066;SDS011;27734;47.028;28.820;2023-07-13T11:15:28;10.33;;;6.20;;
42066;SDS011;27734;47.028;28.820;2023-07-13T11:18:09;8.60;;;6.20;;
42066;SDS011;27734;47.028;28.820;2023-07-13T11:20:49;10.67;;;6.67;;
42066;SDS011;27734;47.028;28.820;2023-07-13T11:23:20;11.07;;;6.50;;
42066;SDS011;27734;47.028;28.820;2023-07-13T11:26:01;13.37;;;6.70;;
42066;SDS011;27734;47.028;28.820;2023-07-13T11:28:41;8.83;;;5.83;;
42066;SDS011;27734;47.028;28.820;2023-07-13T11:31:15;11.40;;;6.70;;
42066;SDS011;27734;47.028;28.820;2023-07-13T11:33:53;9.33;;;6.63;;
42066;SDS011;27734;47.028;28.820;2023-07-13T11:36:37;12.47;;;6.60;;
42066;SDS011;27734;47.028;28.820;2023-07-13T11:39:13;12.50;;;6.30;;
42066;SDS011;27734;47.028;28.820;2023-07-13T11:41:51;10.57;;;6.30;;
42066;SDS011;27734;47.028;28.820;2023-07-13T11:44:25;12.60;;;6.20;;
42066;SDS011;27734;47.028;28.820;2023-07-13T11:47:09;13.07;;;6.40;;
42066;SDS011;27734;47.028;28.820;2023-07-13T11:49:42;11.25;;;6.60;;
42066;SDS011;27734;47.028;28.820;2023-07-13T11:52:23;10.07;;;6.13;;
42066;SDS011;27734;47.028;28.820;2023-07-13T11:55:02;11.77;;;6.30;;
42066;SDS011;27734;47.028;28.820;2023-07-13T11:57:48;10.00;;;6.37;;
42066;SDS011;27734;47.028;28.820;2023-07-13T12:00:21;9.70;;;5.93;;
42066;SDS011;27734;47.028;28.820;2023-07-13T12:02:55;9.47;;;6.37;;
42066;SDS011;27734;47.028;28.820;2023-07-13T12:05:28;11.73;;;6.33;;
42066;SDS011;27734;47.028;28.820;2023-07-13T12:07:59;11.33;;;6.40;;
42066;SDS011;27734;47.028;28.820;2023-07-13T12:10:35;11.43;;;6.40;;
42066;SDS011;27734;47.028;28.820;2023-07-13T12:13:05;9.67;;;6.43;;
42066;SDS011;27734;47.028;28.820;2023-07-13T12:15:39;9.93;;;6.37;;
42066;SDS011;27734;47.028;28.820;2023-07-13T12:18:12;13.75;;;6.28;;
42066;SDS011;27734;47.028;28.820;2023-07-13T12:20:49;10.53;;;5.87;;
42066;SDS011;27734;47.028;28.820;2023-07-13T12:23:25;11.40;;;6.13;;
42066;SDS011;27734;47.028;28.820;2023-07-13T12:25:59;10.47;;;6.20;;
42066;SDS011;27734;47.028;28.820;2023-07-13T12:28:34;10.07;;;6.53;;
42066;SDS011;27734;47.028;28.820;2023-07-13T12:31:06;9.70;;;5.93;;
42066;SDS011;27734;47.028;28.820;2023-07-13T12:36:37;10.53;;;5.80;;
42066;SDS011;27734;47.028;28.820;2023-07-13T12:39:15;10.07;;;5.80;;
42066;SDS011;27734;47.028;28.820;2023-07-13T12:41:45;9.33;;;5.93;;
42066;SDS011;27734;47.028;28.820;2023-07-13T12:47:05;13.00;;;6.17;;
42066;SDS011;27734;47.028;28.820;2023-07-13T12:49:41;11.07;;;5.73;;
42066;SDS011;27734;47.028;28.820;2023-07-13T12:52:16;10.53;;;6.20;;
42066;SDS011;27734;47.028;28.820;2023-07-13T12:57:24;9.57;;;6.10;;
42066;SDS011;27734;47.028;28.820;2023-07-13T12:59:55;9.57;;;5.97;;
42066;SDS011;27734;47.028;28.820;2023-07-13T13:02:28;11.73;;;6.13;;
42066;SDS011;27734;47.028;28.820;2023-07-13T13:04:58;12.57;;;6.27;;
42066;SDS011;27734;47.028;28.820;2023-07-13T13:07:27;11.67;;;6.57;;
42066;SDS011;27734;47.028;28.820;2023-07-13T13:09:56;12.83;;;6.20;;
42066;SDS011;27734;47.028;28.820;2023-07-13T13:12:26;9.50;;;6.53;;
42066;SDS011;27734;47.028;28.820;2023-07-13T13:14:55;15.60;;;6.17;;
42066;SDS011;27734;47.028;28.820;2023-07-13T13:17:25;15.77;;;6.37;;
42066;SDS011;27734;47.028;28.820;2023-07-13T13:19:58;10.87;;;6.67;;
42066;SDS011;27734;47.028;28.820;2023-07-13T13:22:27;11.33;;;6.40;;
42066;SDS011;27734;47.028;28.820;2023-07-13T13:24:55;10.40;;;6.33;;
42066;SDS011;27734;47.028;28.820;2023-07-13T13:27:24;13.67;;;6.90;;
42066;SDS011;27734;47.028;28.820;2023-07-13T13:29:53;14.17;;;7.53;;
42066;SDS011;27734;47.028;28.820;2023-07-13T13:32:23;11.10;;;6.57;;
42066;SDS011;27734;47.028;28.820;2023-07-13T13:34:55;12.63;;;6.43;;
42066;SDS011;27734;47.028;28.820;2023-07-13T13:37:25;13.83;;;7.30;;
42066;SDS011;27734;47.028;28.820;2023-07-13T13:39:54;12.03;;;6.67;;
42066;SDS011;27734;47.028;28.820;2023-07-13T13:42:23;10.87;;;6.40;;
42066;SDS011;27734;47.028;28.820;2023-07-13T13:44:56;10.30;;;6.33;;
42066;SDS011;27734;47.028;28.820;2023-07-13T13:47:29;13.70;;;6.50;;
42066;SDS011;27734;47.028;28.820;2023-07-13T13:50:01;12.80;;;6.83;;
42066;SDS011;27734;47.028;28.820;2023-07-13T13:52:39;8.93;;;5.63;;
42066;SDS011;27734;47.028;28.820;2023-07-13T13:55:13;11.40;;;6.77;;
42066;SDS011;27734;47.028;28.820;2023-07-13T13:57:48;9.97;;;6.40;;
42066;SDS011;27734;47.028;28.820;2023-07-13T14:00:19;15.97;;;6.70;;
42066;SDS011;27734;47.028;28.820;2023-07-13T14:02:51;11.53;;;6.60;;
42066;SDS011;27734;47.028;28.820;2023-07-13T14:05:46;18.77;;;6.77;;
42066;SDS011;27734;47.028;28.820;2023-07-13T14:08:17;15.47;;;6.93;;
42066;SDS011;27734;47.028;28.820;2023-07-13T14:13:18;11.57;;;6.57;;
42066;SDS011;27734;47.028;28.820;2023-07-13T14:15:49;12.83;;;6.40;;
42066;SDS011;27734;47.028;28.820;2023-07-13T14:18:20;15.77;;;6.90;;
42066;SDS011;27734;47.028;28.820;2023-07-13T14:20:56;11.87;;;6.97;;
42066;SDS011;27734;47.028;28.820;2023-07-13T14:23:25;13.57;;;6.80;;
42066;SDS011;27734;47.028;28.820;2023-07-13T14:25:53;13.73;;;6.53;;
42066;SDS011;27734;47.028;28.820;2023-07-13T14:28:22;10.40;;;6.80;;
42066;SDS011;27734;47.028;28.820;2023-07-13T14:30:52;16.37;;;6.57;;
42066;SDS011;27734;47.028;28.820;2023-07-13T14:33:21;11.07;;;5.50;;
42066;SDS011;27734;47.028;28.820;2023-07-13T14:35:50;13.20;;;6.40;;
42066;SDS011;27734;47.028;28.820;2023-07-13T14:38:19;11.83;;;6.00;;
42066;SDS011;27734;47.028;28.820;2023-07-13T14:40:48;10.33;;;5.53;;
42066;SDS011;27734;47.028;28.820;2023-07-13T14:43:17;17.10;;;5.70;;
42066;SDS011;27734;47.028;28.820;2023-07-13T14:45:47;13.63;;;5.80;;
42066;SDS011;27734;47.028;28.820;2023-07-13T14:48:20;16.00;;;6.40;;
42066;SDS011;27734;47.028;28.820;2023-07-13T14:50:52;12.77;;;6.00;;
42066;SDS011;27734;47.028;28.820;2023-07-13T14:53:22;13.57;;;5.93;;
42066;SDS011;27734;47.028;28.820;2023-07-13T14:55:52;14.20;;;6.30;;
42066;SDS011;27734;47.028;28.820;2023-07-13T14:58:23;16.60;;;6.23;;
42066;SDS011;27734;47.028;28.820;2023-07-13T15:00:55;11.17;;;6.13;;
42066;SDS011;27734;47.028;28.820;2023-07-13T15:03:29;13.27;;;5.80;;
42066;SDS011;27734;47.028;28.820;2023-07-13T15:05:58;12.23;;;5.90;;
42066;SDS011;27734;47.028;28.820;2023-07-13T15:08:27;14.67;;;6.00;;
42066;SDS011;27734;47.028;28.820;2023-07-13T15:10:55;13.13;;;5.80;;
42066;SDS011;27734;47.028;28.820;2023-07-13T15:13:27;9.93;;;5.30;;